createdAt,value
2016-11-09T00:00:05.312Z,100394
2016-11-09T00:00:27.154Z,100400
2016-11-09T00:00:52.382Z,100397
2016-11-09T00:01:20.103Z,100397
2016-11-09T00:01:50.577Z,100403
2016-11-09T00:02:15.189Z,100407
2016-11-09T00:02:38.818Z,100400
2016-11-09T00:03:00.092Z,100406
2016-11-09T00:03:27.264Z,100410
2016-11-09T00:03:51.927Z,100416
2016-11-09T00:04:09.965Z,100397
2016-11-09T00:04:31.402Z,100406
2016-11-09T00:04:56.111Z,100400
2016-11-09T00:05:19.909Z,100409
2016-11-09T00:05:35.223Z,100394
2016-11-09T00:05:51.463Z,100406
2016-11-09T00:06:08.858Z,100403
2016-11-09T00:06:27.274Z,100397
2016-11-09T00:06:48.307Z,100397
2016-11-09T00:07:03.523Z,100406
2016-11-09T00:07:15.998Z,100409
2016-11-09T00:07:31.323Z,100419
2016-11-09T00:07:49.468Z,100400
2016-11-09T00:08:01.797Z,100403
2016-11-09T00:08:20.126Z,100397
2016-11-09T00:08:32.556Z,100400
2016-11-09T00:08:50.781Z,100406
2016-11-09T00:09:03.156Z,100406
2016-11-09T00:09:18.462Z,100397
2016-11-09T00:09:36.610Z,100406
2016-11-09T00:09:51.938Z,100403
2016-11-09T00:10:10.130Z,100406
2016-11-09T00:10:22.495Z,100400
2016-11-09T00:10:37.839Z,100403
2016-11-09T00:10:50.279Z,100409
2016-11-09T00:11:05.379Z,100400
2016-11-09T00:11:23.660Z,100397
2016-11-09T00:11:36.089Z,100415
2016-11-09T00:11:48.452Z,100412
2016-11-09T00:12:03.667Z,100409
2016-11-09T00:12:21.748Z,100397
2016-11-09T00:12:34.133Z,100397
2016-11-09T00:12:49.269Z,100397
2016-11-09T00:13:01.766Z,100394
2016-11-09T00:13:17.029Z,100406
2016-11-09T00:13:32.451Z,100391
2016-11-09T00:13:47.656Z,100409
2016-11-09T00:14:08.569Z,100406
2016-11-09T00:14:21.031Z,100406
2016-11-09T00:14:42.186Z,100409
2016-11-09T00:14:57.346Z,100412
2016-11-09T00:15:12.744Z,100397
2016-11-09T00:15:28.015Z,100400
2016-11-09T00:15:40.345Z,100406
2016-11-09T00:15:58.601Z,100394
2016-11-09T00:16:11.105Z,100403
2016-11-09T00:16:23.374Z,100412
2016-11-09T00:16:38.831Z,100394
2016-11-09T00:16:54.406Z,100394
2016-11-09T00:17:15.672Z,100403
2016-11-09T00:17:33.924Z,100403
2016-11-09T00:17:50.225Z,100394
2016-11-09T00:18:11.664Z,100406
2016-11-09T00:18:29.881Z,100400
2016-11-09T00:18:42.270Z,100403
2016-11-09T00:18:57.674Z,100403
2016-11-09T00:19:12.952Z,100406
2016-11-09T00:19:25.356Z,100400
2016-11-09T00:19:40.518Z,100412
2016-11-09T00:19:52.791Z,100394
2016-11-09T00:20:08.112Z,100400
2016-11-09T00:20:27.512Z,100403
2016-11-09T00:20:42.833Z,100403
2016-11-09T00:20:58.277Z,100397
2016-11-09T00:21:13.528Z,100409
2016-11-09T00:21:28.779Z,100406
2016-11-09T00:21:41.128Z,100400
2016-11-09T00:21:56.467Z,100406
2016-11-09T00:22:08.829Z,100394
2016-11-09T00:22:21.129Z,100394
2016-11-09T00:22:36.480Z,100412
2016-11-09T00:22:51.891Z,100394
2016-11-09T00:23:07.255Z,100406
2016-11-09T00:23:22.563Z,100400
2016-11-09T00:23:35.007Z,100400
2016-11-09T00:23:50.194Z,100406
2016-11-09T00:24:02.678Z,100394
2016-11-09T00:24:20.849Z,100394
2016-11-09T00:24:33.337Z,100400
2016-11-09T00:24:48.567Z,100403
2016-11-09T00:25:03.885Z,100400
2016-11-09T00:25:19.232Z,100400
2016-11-09T00:25:31.738Z,100403
2016-11-09T00:25:44.053Z,100406
2016-11-09T00:26:02.189Z,100400
2016-11-09T00:26:17.450Z,100406
2016-11-09T00:26:29.912Z,100400
2016-11-09T00:26:48.085Z,100397
2016-11-09T00:27:03.594Z,100394
2016-11-09T00:27:16.340Z,100382
2016-11-09T00:27:31.514Z,100406
2016-11-09T00:27:49.610Z,100394
2016-11-09T00:28:02.187Z,100394
2016-11-09T00:28:14.619Z,100400
2016-11-09T00:28:27.116Z,100406
2016-11-09T00:28:45.454Z,100397
2016-11-09T00:28:57.779Z,100406
2016-11-09T00:29:15.812Z,100397
2016-11-09T00:29:34.111Z,100406
2016-11-09T00:29:52.246Z,100403
2016-11-09T00:30:07.519Z,100397
2016-11-09T00:30:20.016Z,100394
2016-11-09T00:30:35.503Z,100391
2016-11-09T00:30:53.751Z,100397
2016-11-09T00:31:09.072Z,100403
2016-11-09T00:31:21.354Z,100400
2016-11-09T00:31:33.855Z,100403
2016-11-09T00:31:46.263Z,100400
2016-11-09T00:32:01.446Z,100391
2016-11-09T00:32:19.592Z,100397
2016-11-09T00:32:32.080Z,100403
2016-11-09T00:32:44.435Z,100394
2016-11-09T00:32:59.597Z,100397
2016-11-09T00:33:15.072Z,100403
2016-11-09T00:33:33.201Z,100415
2016-11-09T00:33:45.492Z,100406
2016-11-09T00:33:57.831Z,100403
2016-11-09T00:34:10.282Z,100409
2016-11-09T00:34:25.475Z,100397
2016-11-09T00:34:40.878Z,100400
2016-11-09T00:34:53.239Z,100403
2016-11-09T00:35:08.391Z,100412
2016-11-09T00:35:23.862Z,100412
2016-11-09T00:35:39.195Z,100403
2016-11-09T00:35:52.469Z,100406
2016-11-09T00:36:10.671Z,100391
2016-11-09T00:36:23.021Z,100391
2016-11-09T00:36:38.370Z,100397
2016-11-09T00:36:55.155Z,100406
2016-11-09T00:37:07.623Z,100406
2016-11-09T00:37:20.075Z,100397
2016-11-09T00:37:32.521Z,100400
2016-11-09T00:37:44.898Z,100391
2016-11-09T00:38:00.100Z,100400
2016-11-09T00:38:24.041Z,100406
2016-11-09T00:38:39.390Z,100403
2016-11-09T00:38:54.701Z,100415
2016-11-09T00:39:13.032Z,100403
2016-11-09T00:39:34.117Z,100385
2016-11-09T00:39:46.457Z,100406
2016-11-09T00:39:58.936Z,100412
2016-11-09T00:40:11.416Z,100403
2016-11-09T00:40:26.491Z,100409
2016-11-09T00:40:41.794Z,100394
2016-11-09T00:40:57.079Z,100400
2016-11-09T00:41:12.389Z,100403
2016-11-09T00:41:30.542Z,100394
2016-11-09T00:41:48.938Z,100400
2016-11-09T00:42:04.215Z,100391
2016-11-09T00:42:19.517Z,100397
2016-11-09T00:42:37.742Z,100400
2016-11-09T00:42:52.896Z,100394
2016-11-09T00:43:08.240Z,100388
2016-11-09T00:43:23.432Z,100394
2016-11-09T00:43:38.738Z,100394
2016-11-09T00:43:54.045Z,100391
2016-11-09T00:44:06.401Z,100406
2016-11-09T00:44:18.746Z,100397
2016-11-09T00:44:31.117Z,100388
2016-11-09T00:44:43.667Z,100403
2016-11-09T00:44:58.752Z,100400
2016-11-09T00:45:11.160Z,100397
2016-11-09T00:45:26.507Z,100391
2016-11-09T00:45:38.874Z,100391
2016-11-09T00:45:54.219Z,100391
2016-11-09T00:46:09.477Z,100391
2016-11-09T00:46:21.828Z,100388
2016-11-09T00:46:37.010Z,100388
2016-11-09T00:46:58.057Z,100391
2016-11-09T00:47:13.353Z,100388
2016-11-09T00:47:28.567Z,100397
2016-11-09T00:47:40.810Z,100403
2016-11-09T00:47:59.847Z,100397
2016-11-09T00:48:15.122Z,100400
2016-11-09T00:48:27.543Z,100400
2016-11-09T00:48:43.001Z,100400
2016-11-09T00:48:58.281Z,100400
2016-11-09T00:49:13.628Z,100400
2016-11-09T00:49:25.973Z,100400
2016-11-09T00:49:41.233Z,100403
2016-11-09T00:49:53.701Z,100406
2016-11-09T00:50:09.113Z,100394
2016-11-09T00:50:21.400Z,100391
2016-11-09T00:50:36.785Z,100403
2016-11-09T00:50:49.247Z,100391
2016-11-09T00:51:04.526Z,100400
2016-11-09T00:51:17.085Z,100394
2016-11-09T00:51:29.513Z,100382
2016-11-09T00:51:44.768Z,100400
2016-11-09T00:52:02.918Z,100397
2016-11-09T00:52:15.285Z,100397
2016-11-09T00:52:27.591Z,100403
2016-11-09T00:52:45.861Z,100403
2016-11-09T00:52:58.438Z,100378
2016-11-09T00:53:10.727Z,100394
2016-11-09T00:53:29.027Z,100400
2016-11-09T00:53:44.178Z,100394
2016-11-09T00:53:56.561Z,100388
2016-11-09T00:54:09.138Z,100400
2016-11-09T00:54:24.461Z,100388
2016-11-09T00:54:42.544Z,100397
2016-11-09T00:54:57.901Z,100388
2016-11-09T00:55:16.045Z,100406
2016-11-09T00:55:28.426Z,100388
2016-11-09T00:55:43.773Z,100406
2016-11-09T00:55:59.066Z,100397
2016-11-09T00:56:11.438Z,100391
2016-11-09T00:56:23.891Z,100403
2016-11-09T00:56:42.235Z,100394
2016-11-09T00:56:54.600Z,100397
2016-11-09T00:57:07.097Z,100400
2016-11-09T00:57:19.533Z,100391
2016-11-09T00:57:34.677Z,100403
2016-11-09T00:57:46.986Z,100403
2016-11-09T00:57:59.478Z,100403
2016-11-09T00:58:11.868Z,100403
2016-11-09T00:58:24.345Z,100403
2016-11-09T00:58:39.671Z,100403
2016-11-09T00:58:52.005Z,100403
2016-11-09T00:59:07.228Z,100400
2016-11-09T00:59:28.252Z,100400
2016-11-09T00:59:43.545Z,100397
2016-11-09T00:59:58.795Z,100400
2016-11-09T01:00:14.043Z,100406
2016-11-09T01:00:29.419Z,100406
2016-11-09T01:00:44.653Z,100403
2016-11-09T01:00:59.812Z,100403
2016-11-09T01:01:12.359Z,100409
2016-11-09T01:01:35.992Z,100397
2016-11-09T01:01:51.980Z,100400
2016-11-09T01:02:07.150Z,100400
2016-11-09T01:02:22.339Z,100397
2016-11-09T01:02:37.788Z,100394
2016-11-09T01:02:53.254Z,100406
2016-11-09T01:03:11.437Z,100397
2016-11-09T01:03:23.927Z,100394
2016-11-09T01:03:36.309Z,100400
2016-11-09T01:03:51.512Z,100394
2016-11-09T01:04:03.943Z,100397
2016-11-09T01:04:19.372Z,100397
2016-11-09T01:04:34.511Z,100403
2016-11-09T01:04:46.905Z,100397
2016-11-09T01:04:59.206Z,100397
2016-11-09T01:05:14.451Z,100397
2016-11-09T01:05:26.827Z,100397
2016-11-09T01:05:39.262Z,100394
2016-11-09T01:05:51.698Z,100391
2016-11-09T01:06:04.211Z,100394
2016-11-09T01:06:22.330Z,100400
2016-11-09T01:06:34.669Z,100397
2016-11-09T01:06:49.946Z,100400
2016-11-09T01:07:05.251Z,100397
2016-11-09T01:07:23.314Z,100387
2016-11-09T01:07:35.777Z,100409
2016-11-09T01:07:48.155Z,100409
2016-11-09T01:08:03.388Z,100397
2016-11-09T01:08:15.842Z,100400
2016-11-09T01:08:28.199Z,100400
2016-11-09T01:08:40.516Z,100394
2016-11-09T01:08:58.785Z,100400
2016-11-09T01:09:14.096Z,100406
2016-11-09T01:09:35.070Z,100406
2016-11-09T01:09:56.198Z,100406
2016-11-09T01:10:08.704Z,100400
2016-11-09T01:10:26.849Z,100397
2016-11-09T01:10:42.210Z,100400
2016-11-09T01:10:57.475Z,100406
2016-11-09T01:11:09.789Z,100400
2016-11-09T01:11:25.085Z,100403
2016-11-09T01:11:40.202Z,100403
2016-11-09T01:11:55.609Z,100409
2016-11-09T01:12:08.155Z,100394
2016-11-09T01:12:23.452Z,100400
2016-11-09T01:12:38.790Z,100400
2016-11-09T01:12:51.066Z,100394
2016-11-09T01:13:06.345Z,100400
2016-11-09T01:13:27.460Z,100406
2016-11-09T01:13:42.862Z,100390
2016-11-09T01:13:58.127Z,100394
2016-11-09T01:14:13.595Z,100400
2016-11-09T01:14:25.983Z,100400
2016-11-09T01:14:41.200Z,100397
2016-11-09T01:14:56.631Z,100400
2016-11-09T01:15:09.132Z,100406
2016-11-09T01:15:27.255Z,100400
2016-11-09T01:15:42.540Z,100384
2016-11-09T01:15:54.888Z,100384
2016-11-09T01:16:16.019Z,100403
2016-11-09T01:16:34.263Z,100397
2016-11-09T01:16:52.530Z,100397
2016-11-09T01:17:07.662Z,100393
2016-11-09T01:17:23.020Z,100387
2016-11-09T01:17:44.037Z,100393
2016-11-09T01:17:59.776Z,100396
2016-11-09T01:18:12.104Z,100390
2016-11-09T01:18:27.457Z,100403
2016-11-09T01:18:39.668Z,100390
2016-11-09T01:18:55.087Z,100387
2016-11-09T01:19:10.385Z,100387
2016-11-09T01:19:25.652Z,100396
2016-11-09T01:19:44.290Z,100396
2016-11-09T01:19:56.852Z,100403
2016-11-09T01:20:12.101Z,100396
2016-11-09T01:20:24.357Z,100399
2016-11-09T01:20:42.769Z,100381
2016-11-09T01:21:03.746Z,100387
2016-11-09T01:21:21.904Z,100381
2016-11-09T01:21:37.408Z,100393
2016-11-09T01:21:52.701Z,100387
2016-11-09T01:22:08.003Z,100387
2016-11-09T01:22:20.346Z,100387
2016-11-09T01:22:38.474Z,100390
2016-11-09T01:22:53.815Z,100390
2016-11-09T01:23:09.096Z,100396
2016-11-09T01:23:21.442Z,100396
2016-11-09T01:23:36.685Z,100387
2016-11-09T01:23:49.136Z,100406
2016-11-09T01:24:04.075Z,100396
2016-11-09T01:24:19.487Z,100390
2016-11-09T01:24:34.790Z,100384
2016-11-09T01:24:50.195Z,100387
2016-11-09T01:25:05.366Z,100387
2016-11-09T01:25:17.810Z,100402
2016-11-09T01:25:33.177Z,100396
2016-11-09T01:25:48.488Z,100393
2016-11-09T01:26:06.624Z,100405
2016-11-09T01:26:21.975Z,100387
2016-11-09T01:26:37.207Z,100387
2016-11-09T01:26:55.478Z,100381
2016-11-09T01:27:10.744Z,100384
2016-11-09T01:27:29.050Z,100393
2016-11-09T01:27:41.494Z,100384
2016-11-09T01:27:59.659Z,100384
2016-11-09T01:28:11.862Z,100390
2016-11-09T01:28:30.201Z,100381
2016-11-09T01:28:42.575Z,100387
2016-11-09T01:29:00.606Z,100399
2016-11-09T01:29:15.891Z,100384
2016-11-09T01:29:33.800Z,100381
2016-11-09T01:29:49.178Z,100396
2016-11-09T01:30:04.549Z,100381
2016-11-09T01:30:22.859Z,100402
2016-11-09T01:30:38.232Z,100396
2016-11-09T01:30:53.615Z,100384
2016-11-09T01:31:08.758Z,100390
2016-11-09T01:31:24.022Z,100393
2016-11-09T01:31:36.428Z,100396
2016-11-09T01:31:54.608Z,100393
2016-11-09T01:32:09.933Z,100384
2016-11-09T01:32:28.065Z,100390
2016-11-09T01:32:43.332Z,100387
2016-11-09T01:32:58.533Z,100390
2016-11-09T01:33:11.058Z,100399
2016-11-09T01:33:23.368Z,100384
2016-11-09T01:33:41.603Z,100387
2016-11-09T01:33:53.929Z,100390
2016-11-09T01:34:06.363Z,100393
2016-11-09T01:34:18.734Z,100393
2016-11-09T01:34:34.033Z,100372
2016-11-09T01:34:46.470Z,100393
2016-11-09T01:35:01.669Z,100381
2016-11-09T01:35:14.074Z,100399
2016-11-09T01:35:29.225Z,100384
2016-11-09T01:35:47.284Z,100396
2016-11-09T01:35:59.794Z,100405
2016-11-09T01:36:12.235Z,100405
2016-11-09T01:36:27.503Z,100387
2016-11-09T01:36:45.666Z,100390
2016-11-09T01:36:58.052Z,100393
2016-11-09T01:37:13.284Z,100396
2016-11-09T01:37:28.576Z,100387
2016-11-09T01:37:41.027Z,100387
2016-11-09T01:37:56.350Z,100399
2016-11-09T01:38:08.861Z,100390
2016-11-09T01:38:24.108Z,100399
2016-11-09T01:38:42.209Z,100390
2016-11-09T01:38:57.479Z,100384
2016-11-09T01:39:09.847Z,100402
2016-11-09T01:39:22.244Z,100396
2016-11-09T01:39:37.535Z,100396
2016-11-09T01:39:49.870Z,100399
2016-11-09T01:40:02.227Z,100393
2016-11-09T01:40:14.528Z,100393
2016-11-09T01:40:26.885Z,100390
2016-11-09T01:40:42.116Z,100393
2016-11-09T01:40:54.608Z,100387
2016-11-09T01:41:10.405Z,100381
2016-11-09T01:41:25.516Z,100390
2016-11-09T01:41:43.626Z,100396
2016-11-09T01:41:55.945Z,100399
2016-11-09T01:42:08.312Z,100405
2016-11-09T01:42:20.652Z,100390
2016-11-09T01:42:33.079Z,100393
2016-11-09T01:42:51.328Z,100393
2016-11-09T01:43:06.549Z,100381
2016-11-09T01:43:21.719Z,100390
2016-11-09T01:43:37.041Z,100396
2016-11-09T01:43:52.348Z,100393
2016-11-09T01:44:07.511Z,100390
2016-11-09T01:44:22.898Z,100378
2016-11-09T01:44:38.298Z,100387
2016-11-09T01:44:53.503Z,100399
2016-11-09T01:45:11.782Z,100387
2016-11-09T01:45:24.172Z,100393
2016-11-09T01:45:45.273Z,100381
2016-11-09T01:46:03.470Z,100396
2016-11-09T01:46:15.841Z,100378
2016-11-09T01:46:28.227Z,100387
2016-11-09T01:46:40.635Z,100384
2016-11-09T01:46:53.019Z,100393
2016-11-09T01:47:11.071Z,100381
2016-11-09T01:47:32.356Z,100384
2016-11-09T01:47:52.008Z,100390
2016-11-09T01:48:07.388Z,100381
2016-11-09T01:48:22.782Z,100390
2016-11-09T01:48:35.303Z,100369
2016-11-09T01:48:50.596Z,100393
2016-11-09T01:49:05.776Z,100393
2016-11-09T01:49:21.160Z,100396
2016-11-09T01:49:39.243Z,100399
2016-11-09T01:49:54.617Z,100387
2016-11-09T01:50:10.068Z,100393
2016-11-09T01:50:25.283Z,100390
2016-11-09T01:50:43.557Z,100378
2016-11-09T01:50:58.815Z,100381
2016-11-09T01:51:13.976Z,100393
2016-11-09T01:51:29.427Z,100378
2016-11-09T01:51:44.844Z,100381
2016-11-09T01:52:00.150Z,100387
2016-11-09T01:52:15.404Z,100378
2016-11-09T01:52:27.741Z,100375
2016-11-09T01:52:45.869Z,100375
2016-11-09T01:53:01.174Z,100387
2016-11-09T01:53:16.534Z,100387
2016-11-09T01:53:28.867Z,100387
2016-11-09T01:53:47.013Z,100387
2016-11-09T01:54:02.398Z,100381
2016-11-09T01:54:17.662Z,100384
2016-11-09T01:54:41.563Z,100381
2016-11-09T01:54:54.084Z,100381
2016-11-09T01:55:09.314Z,100384
2016-11-09T01:55:24.716Z,100372
2016-11-09T01:55:37.205Z,100378
2016-11-09T01:55:55.468Z,100369
2016-11-09T01:56:13.520Z,100372
2016-11-09T01:56:25.952Z,100372
2016-11-09T01:56:47.013Z,100381
2016-11-09T01:57:02.345Z,100372
2016-11-09T01:57:14.758Z,100372
2016-11-09T01:57:30.153Z,100366
2016-11-09T01:57:48.226Z,100378
2016-11-09T01:58:06.652Z,100384
2016-11-09T01:58:19.124Z,100378
2016-11-09T01:58:34.468Z,100375
2016-11-09T01:58:46.916Z,100375
2016-11-09T01:58:59.266Z,100375
2016-11-09T01:59:14.473Z,100372
2016-11-09T01:59:29.819Z,100369
2016-11-09T01:59:45.046Z,100378
2016-11-09T02:00:00.278Z,100375
2016-11-09T02:00:18.569Z,100366
2016-11-09T02:00:30.913Z,100366
2016-11-09T02:00:43.270Z,100372
2016-11-09T02:01:01.277Z,100366
2016-11-09T02:01:19.610Z,100378
2016-11-09T02:01:31.978Z,100375
2016-11-09T02:01:50.146Z,100353
2016-11-09T02:02:08.421Z,100381
2016-11-09T02:02:20.826Z,100366
2016-11-09T02:02:33.055Z,100372
2016-11-09T02:02:51.265Z,100366
2016-11-09T02:03:03.481Z,100366
2016-11-09T02:03:15.912Z,100369
2016-11-09T02:03:28.262Z,100375
2016-11-09T02:03:43.597Z,100369
2016-11-09T02:03:56.009Z,100369
2016-11-09T02:04:08.303Z,100356
2016-11-09T02:04:20.869Z,100366
2016-11-09T02:04:36.072Z,100369
2016-11-09T02:04:51.406Z,100381
2016-11-09T02:05:09.593Z,100366
2016-11-09T02:05:22.101Z,100375
2016-11-09T02:05:37.333Z,100375
2016-11-09T02:05:49.876Z,100353
2016-11-09T02:06:07.885Z,100369
2016-11-09T02:06:23.163Z,100356
2016-11-09T02:06:38.590Z,100375
2016-11-09T02:06:56.854Z,100363
2016-11-09T02:07:09.370Z,100369
2016-11-09T02:07:27.682Z,100381
2016-11-09T02:07:49.798Z,100359
2016-11-09T02:08:10.973Z,100363
2016-11-09T02:08:29.256Z,100366
2016-11-09T02:08:41.827Z,100363
2016-11-09T02:09:00.180Z,100375
2016-11-09T02:09:19.368Z,100363
2016-11-09T02:09:39.288Z,100372
2016-11-09T02:09:54.880Z,100375
2016-11-09T02:10:07.338Z,100356
2016-11-09T02:10:19.886Z,100359
2016-11-09T02:10:32.178Z,100366
2016-11-09T02:10:44.720Z,100366
2016-11-09T02:11:00.079Z,100366
2016-11-09T02:11:18.324Z,100359
2016-11-09T02:11:30.801Z,100375
2016-11-09T02:11:46.217Z,100356
2016-11-09T02:11:58.537Z,100372
2016-11-09T02:12:13.891Z,100363
2016-11-09T02:12:29.429Z,100375
2016-11-09T02:12:47.711Z,100381
2016-11-09T02:13:07.752Z,100363
2016-11-09T02:13:20.179Z,100359
2016-11-09T02:13:35.524Z,100372
2016-11-09T02:13:50.713Z,100375
2016-11-09T02:14:06.044Z,100356
2016-11-09T02:14:21.335Z,100353
2016-11-09T02:14:36.687Z,100362
2016-11-09T02:14:52.057Z,100369
2016-11-09T02:15:07.366Z,100359
2016-11-09T02:15:19.655Z,100353
2016-11-09T02:15:32.087Z,100362
2016-11-09T02:15:44.421Z,100353
2016-11-09T02:16:02.737Z,100359
2016-11-09T02:16:18.157Z,100359
2016-11-09T02:16:33.515Z,100359
2016-11-09T02:16:45.888Z,100359
2016-11-09T02:17:01.162Z,100344
2016-11-09T02:17:19.532Z,100359
2016-11-09T02:17:37.744Z,100356
2016-11-09T02:17:51.104Z,100350
2016-11-09T02:18:06.595Z,100362
2016-11-09T02:18:18.941Z,100359
2016-11-09T02:18:34.214Z,100350
2016-11-09T02:18:46.610Z,100353
2016-11-09T02:19:01.827Z,100362
2016-11-09T02:19:17.355Z,100350
2016-11-09T02:19:32.587Z,100356
2016-11-09T02:19:44.881Z,100359
2016-11-09T02:20:00.354Z,100359
2016-11-09T02:20:12.856Z,100359
2016-11-09T02:20:27.897Z,100362
2016-11-09T02:20:43.132Z,100356
2016-11-09T02:21:01.251Z,100362
2016-11-09T02:21:16.523Z,100353
2016-11-09T02:21:34.730Z,100366
2016-11-09T02:21:52.902Z,100359
2016-11-09T02:22:08.083Z,100366
2016-11-09T02:22:20.690Z,100359
2016-11-09T02:22:33.004Z,100366
2016-11-09T02:22:45.493Z,100362
2016-11-09T02:22:58.100Z,100375
2016-11-09T02:23:10.581Z,100366
2016-11-09T02:23:22.823Z,100356
2016-11-09T02:23:41.133Z,100359
2016-11-09T02:23:59.320Z,100372
2016-11-09T02:24:11.610Z,100359
2016-11-09T02:24:26.966Z,100369
2016-11-09T02:24:39.559Z,100366
2016-11-09T02:25:00.466Z,100366
2016-11-09T02:25:15.711Z,100362
2016-11-09T02:25:28.165Z,100366
2016-11-09T02:25:40.630Z,100381
2016-11-09T02:25:55.997Z,100356
2016-11-09T02:26:08.519Z,100356
2016-11-09T02:26:23.832Z,100359
2016-11-09T02:26:41.966Z,100344
2016-11-09T02:26:54.402Z,100362
2016-11-09T02:27:06.801Z,100366
2016-11-09T02:27:22.204Z,100356
2016-11-09T02:27:34.736Z,100353
2016-11-09T02:27:49.917Z,100353
2016-11-09T02:28:02.282Z,100359
2016-11-09T02:28:14.807Z,100366
2016-11-09T02:28:32.884Z,100359
2016-11-09T02:28:48.200Z,100366
2016-11-09T02:29:03.635Z,100366
2016-11-09T02:29:19.013Z,100356
2016-11-09T02:29:34.348Z,100362
2016-11-09T02:29:49.629Z,100362
2016-11-09T02:30:07.578Z,100344
2016-11-09T02:30:25.716Z,100356
2016-11-09T02:30:43.911Z,100359
2016-11-09T02:30:59.122Z,100350
2016-11-09T02:31:11.478Z,100362
2016-11-09T02:31:23.947Z,100362
2016-11-09T02:31:39.092Z,100356
2016-11-09T02:31:51.474Z,100350
2016-11-09T02:32:06.844Z,100369
2016-11-09T02:32:25.126Z,100350
2016-11-09T02:32:37.462Z,100366
2016-11-09T02:32:52.762Z,100362
2016-11-09T02:33:05.087Z,100353
2016-11-09T02:33:17.575Z,100335
2016-11-09T02:33:35.807Z,100341
2016-11-09T02:33:48.298Z,100356
2016-11-09T02:34:03.719Z,100353
2016-11-09T02:34:19.088Z,100353
2016-11-09T02:34:31.590Z,100359
2016-11-09T02:34:46.901Z,100350
2016-11-09T02:35:07.916Z,100353
2016-11-09T02:35:26.113Z,100353
2016-11-09T02:35:41.317Z,100347
2016-11-09T02:35:53.926Z,100353
2016-11-09T02:36:09.318Z,100362
2016-11-09T02:36:21.667Z,100359
2016-11-09T02:36:37.027Z,100350
2016-11-09T02:36:52.136Z,100356
2016-11-09T02:37:04.477Z,100362
2016-11-09T02:37:16.871Z,100350
2016-11-09T02:37:32.174Z,100362
2016-11-09T02:37:44.554Z,100344
2016-11-09T02:37:57.171Z,100356
2016-11-09T02:38:18.159Z,100350
2016-11-09T02:38:30.512Z,100350
2016-11-09T02:38:48.787Z,100344
2016-11-09T02:39:04.193Z,100350
2016-11-09T02:39:19.411Z,100356
2016-11-09T02:39:31.837Z,100338
2016-11-09T02:39:47.053Z,100344
2016-11-09T02:40:02.370Z,100365
2016-11-09T02:40:14.798Z,100347
2016-11-09T02:40:35.919Z,100350
2016-11-09T02:40:48.237Z,100350
2016-11-09T02:41:03.504Z,100350
2016-11-09T02:41:18.594Z,100356
2016-11-09T02:41:34.016Z,100347
2016-11-09T02:41:49.350Z,100344
2016-11-09T02:42:10.477Z,100356
2016-11-09T02:42:25.723Z,100341
2016-11-09T02:42:40.930Z,100353
2016-11-09T02:42:56.302Z,100347
2016-11-09T02:43:11.477Z,100356
2016-11-09T02:43:23.891Z,100365
2016-11-09T02:43:42.196Z,100353
2016-11-09T02:43:54.476Z,100341
2016-11-09T02:44:06.760Z,100341
2016-11-09T02:44:22.153Z,100368
2016-11-09T02:44:34.511Z,100347
2016-11-09T02:44:49.939Z,100338
2016-11-09T02:45:05.327Z,100341
2016-11-09T02:45:26.183Z,100338
2016-11-09T02:45:41.496Z,100344
2016-11-09T02:45:53.946Z,100350
2016-11-09T02:46:09.126Z,100347
2016-11-09T02:46:21.627Z,100341
2016-11-09T02:46:40.011Z,100344
2016-11-09T02:46:58.223Z,100350
2016-11-09T02:47:10.661Z,100338
2016-11-09T02:47:25.991Z,100350
2016-11-09T02:47:41.148Z,100347
2016-11-09T02:48:00.109Z,100344
2016-11-09T02:48:15.374Z,100344
2016-11-09T02:48:27.767Z,100353
2016-11-09T02:48:45.916Z,100350
2016-11-09T02:49:01.193Z,100338
2016-11-09T02:49:16.596Z,100338
2016-11-09T02:49:28.891Z,100338
2016-11-09T02:49:41.324Z,100341
2016-11-09T02:49:59.393Z,100335
2016-11-09T02:50:17.436Z,100347
2016-11-09T02:50:35.532Z,100347
2016-11-09T02:50:50.865Z,100356
2016-11-09T02:51:08.938Z,100356
2016-11-09T02:51:21.519Z,100338
2016-11-09T02:51:36.859Z,100333
2016-11-09T02:51:52.017Z,100347
2016-11-09T02:52:10.183Z,100338
2016-11-09T02:52:22.591Z,100341
2016-11-09T02:52:37.807Z,100341
2016-11-09T02:52:50.402Z,100344
2016-11-09T02:53:05.592Z,100353
2016-11-09T02:53:20.786Z,100347
2016-11-09T02:53:41.970Z,100341
2016-11-09T02:54:00.243Z,100344
2016-11-09T02:54:12.703Z,100333
2016-11-09T02:54:28.068Z,100344
2016-11-09T02:54:40.438Z,100344
2016-11-09T02:54:58.529Z,100350
2016-11-09T02:55:11.123Z,100341
2016-11-09T02:55:26.413Z,100335
2016-11-09T02:55:45.190Z,100338
2016-11-09T02:56:03.323Z,100335
2016-11-09T02:56:15.823Z,100335
2016-11-09T02:56:28.121Z,100344
2016-11-09T02:56:40.582Z,100330
2016-11-09T02:56:55.784Z,100344
2016-11-09T02:57:13.982Z,100341
2016-11-09T02:57:29.335Z,100350
2016-11-09T02:57:41.636Z,100335
2016-11-09T02:57:54.004Z,100335
2016-11-09T02:58:12.060Z,100347
2016-11-09T02:58:24.409Z,100335
2016-11-09T02:58:36.869Z,100335
2016-11-09T02:58:52.270Z,100335
2016-11-09T02:59:07.540Z,100338
2016-11-09T02:59:19.884Z,100333
2016-11-09T02:59:35.155Z,100330
2016-11-09T02:59:50.433Z,100333
2016-11-09T03:00:08.764Z,100324
2016-11-09T03:00:21.290Z,100335
2016-11-09T03:00:36.319Z,100333
2016-11-09T03:00:51.645Z,100335
2016-11-09T03:01:06.932Z,100335
2016-11-09T03:01:19.347Z,100333
2016-11-09T03:01:34.631Z,100324
2016-11-09T03:01:49.986Z,100335
2016-11-09T03:02:08.090Z,100333
2016-11-09T03:02:20.572Z,100324
2016-11-09T03:02:38.554Z,100333
2016-11-09T03:02:56.564Z,100333
2016-11-09T03:03:09.022Z,100333
2016-11-09T03:03:21.502Z,100333
2016-11-09T03:03:42.553Z,100338
2016-11-09T03:03:54.955Z,100338
2016-11-09T03:04:10.087Z,100330
2016-11-09T03:04:22.415Z,100335
2016-11-09T03:04:34.760Z,100333
2016-11-09T03:04:47.186Z,100324
2016-11-09T03:04:59.500Z,100330
2016-11-09T03:05:14.731Z,100335
2016-11-09T03:05:27.110Z,100330
2016-11-09T03:05:39.475Z,100333
2016-11-09T03:05:51.998Z,100324
2016-11-09T03:06:10.223Z,100333
2016-11-09T03:06:25.324Z,100333
2016-11-09T03:06:40.491Z,100333
2016-11-09T03:06:58.711Z,100335
2016-11-09T03:07:11.156Z,100318
2016-11-09T03:07:26.658Z,100333
2016-11-09T03:07:41.967Z,100315
2016-11-09T03:08:00.121Z,100338
2016-11-09T03:08:12.490Z,100315
2016-11-09T03:08:27.884Z,100315
2016-11-09T03:08:40.233Z,100324
2016-11-09T03:08:55.481Z,100315
2016-11-09T03:09:14.402Z,100315
2016-11-09T03:09:26.844Z,100333
2016-11-09T03:09:39.148Z,100321
2016-11-09T03:09:51.578Z,100330